createdAt,value
2023-08-07T00:00:30.186Z,1000.13
2023-08-07T00:01:30.214Z,1000.11
2023-08-07T00:02:30.138Z,1000.13
2023-08-07T00:03:30.163Z,1000.12
2023-08-07T00:04:30.060Z,1000.10
2023-08-07T00:05:30.067Z,1000.10
2023-08-07T00:06:30.077Z,1000.10
2023-08-07T00:07:29.975Z,1000.09
2023-08-07T00:08:29.961Z,1000.07
2023-08-07T00:09:29.980Z,1000.08
2023-08-07T00:10:29.883Z,1000.10
2023-08-07T00:11:29.859Z,1000.11
2023-08-07T00:12:29.828Z,1000.05
2023-08-07T00:13:29.790Z,1000.07
2023-08-07T00:14:29.754Z,1000.02
2023-08-07T00:15:29.816Z,1000.02
2023-08-07T00:16:29.697Z,1000.00
2023-08-07T00:17:29.698Z,1000.04
2023-08-07T00:18:30.347Z,999.99
2023-08-07T00:19:29.610Z,1000.03
2023-08-07T00:20:29.571Z,1000.00
2023-08-07T00:21:29.604Z,999.99
2023-08-07T00:22:29.511Z,999.95
2023-08-07T00:23:29.487Z,1000.02
2023-08-07T00:24:29.454Z,999.95
2023-08-07T00:25:29.437Z,999.93
2023-08-07T00:26:29.389Z,999.93
2023-08-07T00:27:29.410Z,999.92
2023-08-07T00:28:29.362Z,999.92
2023-08-07T00:29:29.319Z,999.94
2023-08-07T00:30:29.263Z,999.94
2023-08-07T00:31:29.337Z,999.92
2023-08-07T00:32:29.241Z,999.92
2023-08-07T00:33:29.231Z,999.97
2023-08-07T00:34:29.161Z,1000.00
2023-08-07T00:35:29.113Z,1000.02
2023-08-07T00:36:29.080Z,1000.05
2023-08-07T00:37:29.056Z,1000.01
2023-08-07T00:38:29.029Z,999.99
2023-08-07T00:39:29.054Z,999.96
2023-08-07T00:40:28.951Z,999.97
2023-08-07T00:41:28.927Z,999.96
2023-08-07T00:42:28.903Z,999.90
2023-08-07T00:43:29.478Z,999.88
2023-08-07T00:44:28.838Z,999.95
2023-08-07T00:45:28.857Z,999.90
2023-08-07T00:46:28.778Z,999.90
2023-08-07T00:47:28.769Z,999.88
2023-08-07T00:48:28.706Z,999.87
2023-08-07T00:49:28.678Z,999.85
2023-08-07T00:50:41.635Z,999.86
2023-08-07T00:51:28.680Z,999.84
2023-08-07T00:52:28.652Z,999.81
2023-08-07T00:53:28.559Z,999.76
2023-08-07T00:54:28.523Z,999.76
2023-08-07T00:55:28.500Z,999.75
2023-08-07T00:56:28.573Z,999.76
2023-08-07T00:57:28.449Z,999.78
2023-08-07T00:58:28.400Z,999.77
2023-08-07T00:59:28.384Z,999.79
2023-08-07T01:00:28.349Z,999.75
2023-08-07T01:01:28.423Z,999.75
2023-08-07T01:02:28.548Z,999.73
2023-08-07T01:03:28.260Z,999.74
2023-08-07T01:04:28.213Z,999.73
2023-08-07T01:05:28.190Z,999.74
2023-08-07T01:06:28.248Z,999.73
2023-08-07T01:07:28.134Z,999.73
2023-08-07T01:08:28.104Z,999.72
2023-08-07T01:09:28.062Z,999.71
2023-08-07T01:10:28.039Z,999.74
2023-08-07T01:11:28.003Z,999.71
2023-08-07T01:12:28.060Z,999.72
2023-08-07T01:13:27.941Z,999.72
2023-08-07T01:14:27.912Z,999.72
2023-08-07T01:15:27.873Z,999.72
2023-08-07T01:16:27.976Z,999.73
2023-08-07T01:17:27.968Z,999.74
2023-08-07T01:18:27.871Z,999.73
2023-08-07T01:19:27.754Z,999.73
2023-08-07T01:20:27.767Z,999.73
2023-08-07T01:21:27.726Z,999.74
2023-08-07T01:22:27.676Z,999.75
2023-08-07T01:23:27.631Z,999.71
2023-08-07T01:24:27.660Z,999.71
2023-08-07T01:25:27.568Z,999.70
2023-08-07T01:26:27.552Z,999.71
2023-08-07T01:27:27.506Z,999.67
2023-08-07T01:28:27.488Z,999.68
2023-08-07T01:29:27.510Z,999.71
2023-08-07T01:30:27.435Z,999.65
2023-08-07T01:31:27.386Z,999.64
2023-08-07T01:32:27.402Z,999.67
2023-08-07T01:33:27.447Z,999.69
2023-08-07T01:34:27.298Z,999.65
2023-08-07T01:35:27.341Z,999.65
2023-08-07T01:36:27.243Z,999.65
2023-08-07T01:37:27.207Z,999.64
2023-08-07T01:38:27.170Z,999.65
2023-08-07T01:39:27.140Z,999.65
2023-08-07T01:40:27.121Z,999.62
2023-08-07T01:41:27.130Z,999.66
2023-08-07T01:42:27.109Z,999.64
2023-08-07T01:43:27.014Z,999.63
2023-08-07T01:44:26.990Z,999.60
2023-08-07T01:45:27.048Z,999.60
2023-08-07T01:46:26.965Z,999.61
2023-08-07T01:47:27.015Z,999.65
2023-08-07T01:48:27.252Z,999.66
2023-08-07T01:49:26.831Z,999.62
2023-08-07T01:50:26.816Z,999.64
2023-08-07T01:51:26.782Z,999.66
2023-08-07T01:52:26.762Z,999.60
2023-08-07T01:53:26.792Z,999.64
2023-08-07T01:54:26.689Z,999.66
2023-08-07T01:55:26.657Z,999.67
2023-08-07T01:56:26.625Z,999.64
2023-08-07T01:57:26.599Z,999.68
2023-08-07T01:58:26.652Z,999.68
2023-08-07T01:59:26.527Z,999.64
2023-08-07T02:00:26.531Z,999.65
2023-08-07T02:01:26.502Z,999.66
2023-08-07T02:02:26.469Z,999.62
2023-08-07T02:03:26.637Z,999.65
2023-08-07T02:04:26.392Z,999.63
2023-08-07T02:05:26.339Z,999.62
2023-08-07T02:06:26.315Z,999.62
2023-08-07T02:07:26.280Z,999.60
2023-08-07T02:08:26.252Z,999.58
2023-08-07T02:09:26.286Z,999.58
2023-08-07T02:10:26.989Z,999.58
2023-08-07T02:11:26.154Z,999.59
2023-08-07T02:12:26.137Z,999.62
2023-08-07T02:13:26.092Z,999.62
2023-08-07T02:14:26.134Z,999.61
2023-08-07T02:15:26.055Z,999.63
2023-08-07T02:16:26.031Z,999.63
2023-08-07T02:17:26.002Z,999.65
2023-08-07T02:18:25.956Z,999.66
2023-08-07T02:19:25.980Z,999.65
2023-08-07T02:20:25.954Z,999.71
2023-08-07T02:21:25.855Z,999.71
2023-08-07T02:22:25.827Z,999.69
2023-08-07T02:23:25.804Z,999.71
2023-08-07T02:24:25.789Z,999.67
2023-08-07T02:25:25.727Z,999.68
2023-08-07T02:26:25.761Z,999.66
2023-08-07T02:27:25.665Z,999.65
2023-08-07T02:28:25.640Z,999.67
2023-08-07T02:29:25.853Z,999.69
2023-08-07T02:30:25.648Z,999.68
2023-08-07T02:31:25.556Z,999.72
2023-08-07T02:32:25.545Z,999.72
2023-08-07T02:33:25.487Z,999.72
2023-08-07T02:34:25.466Z,999.71
2023-08-07T02:35:25.466Z,999.75
2023-08-07T02:36:25.448Z,999.73
2023-08-07T02:37:25.368Z,999.79
2023-08-07T02:38:25.332Z,999.73
2023-08-07T02:39:25.291Z,999.73
2023-08-07T02:40:25.278Z,999.79
2023-08-07T02:41:25.248Z,999.76
2023-08-07T02:42:25.269Z,999.79
2023-08-07T02:43:25.180Z,999.78
2023-08-07T02:44:25.152Z,999.82
2023-08-07T02:45:25.109Z,999.82
2023-08-07T02:46:25.140Z,999.84
2023-08-07T02:47:25.063Z,999.83
2023-08-07T02:48:25.110Z,999.86
2023-08-07T02:49:24.997Z,999.88
2023-08-07T02:50:24.954Z,999.87
2023-08-07T02:51:25.498Z,999.81
2023-08-07T02:52:24.894Z,999.85
2023-08-07T02:53:24.865Z,999.91
2023-08-07T02:54:25.529Z,999.84
2023-08-07T02:55:24.942Z,999.85
2023-08-07T02:56:25.445Z,999.81
2023-08-07T02:57:25.497Z,999.83
2023-08-07T02:58:25.445Z,999.79
2023-08-07T02:59:24.682Z,999.80
2023-08-07T03:00:24.728Z,999.80
2023-08-07T03:01:24.659Z,999.78
2023-08-07T03:02:24.701Z,999.79
2023-08-07T03:03:24.555Z,999.82
2023-08-07T03:04:24.528Z,999.83
2023-08-07T03:05:24.514Z,999.83
2023-08-07T03:06:24.561Z,999.83
2023-08-07T03:07:24.434Z,999.87
2023-08-07T03:08:24.404Z,999.81
2023-08-07T03:09:24.381Z,999.81
2023-08-07T03:10:26.752Z,999.84
2023-08-07T03:11:24.318Z,999.86
2023-08-07T03:12:24.335Z,999.84
2023-08-07T03:13:24.272Z,999.85
2023-08-07T03:14:24.226Z,999.85
2023-08-07T03:15:24.183Z,999.86
2023-08-07T03:16:24.200Z,999.87
2023-08-07T03:17:24.197Z,999.86
2023-08-07T03:18:24.097Z,999.88
2023-08-07T03:19:24.070Z,999.92
2023-08-07T03:20:24.033Z,999.92
2023-08-07T03:21:24.003Z,999.93
2023-08-07T03:22:24.027Z,999.96
2023-08-07T03:23:23.939Z,999.96
2023-08-07T03:24:23.931Z,1000.01
2023-08-07T03:25:23.903Z,1000.01
2023-08-07T03:26:23.902Z,1000.00
2023-08-07T03:27:23.896Z,1000.04
2023-08-07T03:28:23.798Z,1000.03
2023-08-07T03:29:23.755Z,1000.08
2023-08-07T03:30:23.731Z,1000.08
2023-08-07T03:31:23.727Z,1000.03
2023-08-07T03:32:23.691Z,1000.04
2023-08-07T03:33:23.685Z,1000.07
2023-08-07T03:34:23.621Z,1000.10
2023-08-07T03:35:23.565Z,1000.05
2023-08-07T03:36:23.549Z,1000.11
2023-08-07T03:37:23.507Z,1000.09
2023-08-07T03:38:23.549Z,1000.12
2023-08-07T03:39:23.507Z,1000.14
2023-08-07T03:40:23.418Z,1000.19
2023-08-07T03:41:23.380Z,1000.19
2023-08-07T03:42:23.378Z,1000.16
2023-08-07T03:43:23.324Z,1000.19
2023-08-07T03:44:23.352Z,1000.20
2023-08-07T03:45:23.294Z,1000.19
2023-08-07T03:46:23.320Z,1000.20
2023-08-07T03:47:23.208Z,1000.22
2023-08-07T03:48:24.000Z,1000.18
2023-08-07T03:49:23.576Z,1000.17
2023-08-07T03:50:25.902Z,1000.21
2023-08-07T03:51:23.110Z,1000.21
2023-08-07T03:52:24.022Z,1000.21
2023-08-07T03:53:23.907Z,1000.22
2023-08-07T03:54:24.906Z,1000.17
2023-08-07T03:55:23.083Z,1000.19
2023-08-07T03:56:23.025Z,1000.21
2023-08-07T03:57:22.888Z,1000.20
2023-08-07T03:58:22.865Z,1000.20
2023-08-07T03:59:22.826Z,1000.22
2023-08-07T04:00:22.803Z,1000.23
2023-08-07T04:01:22.851Z,1000.26
2023-08-07T04:02:22.772Z,1000.26
2023-08-07T04:03:22.724Z,1000.26
2023-08-07T04:04:22.733Z,1000.22
2023-08-07T04:05:22.654Z,1000.25
2023-08-07T04:06:22.617Z,1000.24
2023-08-07T04:07:22.631Z,1000.26
2023-08-07T04:08:22.556Z,1000.22
2023-08-07T04:09:22.530Z,1000.25
2023-08-07T04:10:22.512Z,1000.27
2023-08-07T04:11:22.464Z,1000.27
2023-08-07T04:12:22.424Z,1000.28
2023-08-07T04:13:22.518Z,1000.26
2023-08-07T04:14:22.383Z,1000.26
2023-08-07T04:15:22.333Z,1000.24
2023-08-07T04:16:22.303Z,1000.24
2023-08-07T04:17:22.358Z,1000.25
2023-08-07T04:18:22.238Z,1000.22
2023-08-07T04:19:22.264Z,1000.24
2023-08-07T04:20:22.191Z,1000.27
2023-08-07T04:21:22.175Z,1000.23
2023-08-07T04:22:23.016Z,1000.27
2023-08-07T04:23:23.418Z,1000.22
2023-08-07T04:24:22.057Z,1000.25
2023-08-07T04:25:22.097Z,1000.28
2023-08-07T04:26:21.996Z,1000.26
2023-08-07T04:27:21.969Z,1000.28
2023-08-07T04:28:21.951Z,1000.26
2023-08-07T04:29:21.907Z,1000.28
2023-08-07T04:30:21.880Z,1000.29
2023-08-07T04:31:21.942Z,1000.33
2023-08-07T04:32:22.500Z,1000.29
2023-08-07T04:33:21.794Z,1000.31
2023-08-07T04:34:21.755Z,1000.30
2023-08-07T04:35:21.721Z,1000.26
2023-08-07T04:36:21.689Z,1000.27
2023-08-07T04:37:21.719Z,1000.35
2023-08-07T04:38:21.628Z,1000.29
2023-08-07T04:39:21.601Z,1000.31
2023-08-07T04:40:21.560Z,1000.23
2023-08-07T04:41:21.536Z,1000.29
2023-08-07T04:42:21.500Z,1000.34
2023-08-07T04:43:22.098Z,1000.36
2023-08-07T04:44:21.456Z,1000.36
2023-08-07T04:45:21.413Z,1000.32
2023-08-07T04:46:21.424Z,1000.34
2023-08-07T04:47:21.417Z,1000.32
2023-08-07T04:48:21.324Z,1000.33
2023-08-07T04:49:21.352Z,1000.36
2023-08-07T04:50:21.261Z,1000.40
2023-08-07T04:51:21.230Z,1000.40
2023-08-07T04:52:26.457Z,1000.41
2023-08-07T04:53:21.172Z,1000.43
2023-08-07T04:54:21.136Z,1000.38
2023-08-07T04:55:21.180Z,1000.40
2023-08-07T04:56:21.131Z,1000.44
2023-08-07T04:57:21.051Z,1000.40
2023-08-07T04:58:21.046Z,1000.40
2023-08-07T04:59:20.986Z,1000.40
2023-08-07T05:00:20.949Z,1000.40
2023-08-07T05:01:21.083Z,1000.42
2023-08-07T05:02:20.941Z,1000.41
2023-08-07T05:03:20.923Z,1000.43
2023-08-07T05:04:20.833Z,1000.47
2023-08-07T05:05:20.803Z,1000.45
2023-08-07T05:06:20.767Z,1000.43
2023-08-07T05:07:20.799Z,1000.45
2023-08-07T05:08:20.704Z,1000.46
2023-08-07T05:09:20.682Z,1000.48
2023-08-07T05:10:20.674Z,1000.49
2023-08-07T05:11:20.622Z,1000.51
2023-08-07T05:12:20.631Z,1000.48
2023-08-07T05:13:20.604Z,1000.48
2023-08-07T05:14:20.521Z,1000.47
2023-08-07T05:15:20.508Z,1000.47
2023-08-07T05:16:20.540Z,1000.46
2023-08-07T05:17:20.444Z,1000.52
2023-08-07T05:18:20.448Z,1000.52
2023-08-07T05:19:20.374Z,1000.50
2023-08-07T05:20:20.372Z,1000.49
2023-08-07T05:21:20.311Z,1000.46
2023-08-07T05:22:20.283Z,1000.50
2023-08-07T05:23:20.321Z,1000.50
2023-08-07T05:24:20.222Z,1000.51
2023-08-07T05:25:20.196Z,1000.58
2023-08-07T05:26:20.159Z,1000.56
2023-08-07T05:27:20.129Z,1000.53
2023-08-07T05:28:20.166Z,1000.58
2023-08-07T05:29:20.074Z,1000.58
2023-08-07T05:30:20.033Z,1000.59
2023-08-07T05:31:20.049Z,1000.55
2023-08-07T05:32:19.974Z,1000.60
2023-08-07T05:33:20.015Z,1000.59
2023-08-07T05:34:19.914Z,1000.59
2023-08-07T05:35:19.889Z,1000.59
2023-08-07T05:36:19.858Z,1000.64
2023-08-07T05:37:19.842Z,1000.61
2023-08-07T05:38:19.841Z,1000.62
2023-08-07T05:39:19.931Z,1000.56
2023-08-07T05:40:19.735Z,1000.57
2023-08-07T05:41:19.713Z,1000.59
2023-08-07T05:42:19.673Z,1000.55
2023-08-07T05:43:19.656Z,1000.57
2023-08-07T05:44:19.616Z,1000.59
2023-08-07T05:45:19.642Z,1000.57
2023-08-07T05:46:19.614Z,1000.56
2023-08-07T05:47:19.576Z,1000.58
2023-08-07T05:48:19.498Z,1000.66
2023-08-07T05:49:19.477Z,1000.70
2023-08-07T05:50:19.438Z,1000.64
2023-08-07T05:51:19.470Z,1000.63
2023-08-07T05:52:19.378Z,1000.64
2023-08-07T05:53:19.370Z,1000.69
2023-08-07T05:54:19.322Z,1000.64
2023-08-07T05:55:19.295Z,1000.60
2023-08-07T05:56:19.286Z,1000.63
2023-08-07T05:57:19.314Z,1000.67
2023-08-07T05:58:19.209Z,1000.75
2023-08-07T05:59:19.188Z,1000.65
2023-08-07T06:00:19.148Z,1000.67
2023-08-07T06:01:19.222Z,1000.69
2023-08-07T06:02:19.087Z,1000.71
2023-08-07T06:03:19.120Z,1000.73
2023-08-07T06:04:19.114Z,1000.73
2023-08-07T06:05:19.004Z,1000.74
2023-08-07T06:06:18.974Z,1000.71
2023-08-07T06:07:18.957Z,1000.71
2023-08-07T06:08:18.910Z,1000.80
2023-08-07T06:09:18.946Z,1000.83
2023-08-07T06:10:18.859Z,1000.85
2023-08-07T06:11:18.846Z,1000.81
2023-08-07T06:12:18.799Z,1000.82
2023-08-07T06:13:30.519Z,1000.84
2023-08-07T06:14:18.746Z,1000.84
2023-08-07T06:15:19.555Z,1000.84
2023-08-07T06:16:18.720Z,1000.81
2023-08-07T06:17:18.717Z,1000.85
2023-08-07T06:18:18.637Z,1000.85
2023-08-07T06:19:30.578Z,1000.87
2023-08-07T06:20:18.587Z,1000.85
2023-08-07T06:21:18.544Z,1000.82
2023-08-07T06:22:18.601Z,1000.92
2023-08-07T06:23:18.485Z,1000.90
2023-08-07T06:24:18.460Z,1000.85
2023-08-07T06:25:18.434Z,1000.88
2023-08-07T06:26:18.399Z,1000.88
2023-08-07T06:27:18.466Z,1000.97
2023-08-07T06:28:18.352Z,1000.86
2023-08-07T06:29:18.320Z,1000.92
2023-08-07T06:30:18.286Z,1000.91
2023-08-07T06:31:18.263Z,1001.04
2023-08-07T06:32:18.279Z,1000.97
2023-08-07T06:33:18.261Z,1001.08
2023-08-07T06:34:18.173Z,1001.06
2023-08-07T06:35:18.158Z,1001.08
2023-08-07T06:36:18.130Z,1001.03
2023-08-07T06:37:18.095Z,1001.12
2023-08-07T06:38:18.085Z,1001.13
2023-08-07T06:39:18.098Z,1001.07
2023-08-07T06:40:18.013Z,1001.13
2023-08-07T06:41:17.985Z,1001.17
2023-08-07T06:42:17.944Z,1001.19
2023-08-07T06:43:17.929Z,1001.18
2023-08-07T06:44:17.887Z,1001.22
2023-08-07T06:45:17.927Z,1001.24
2023-08-07T06:46:17.888Z,1001.19
2023-08-07T06:47:17.809Z,1001.18
2023-08-07T06:48:17.773Z,1001.19
2023-08-07T06:49:17.752Z,1001.17
2023-08-07T06:50:17.904Z,1001.20
2023-08-07T06:51:17.757Z,1001.22
2023-08-07T06:52:17.667Z,1001.23
2023-08-07T06:53:18.582Z,1001.28
2023-08-07T06:54:17.626Z,1001.31
2023-08-07T06:55:18.589Z,1001.23
2023-08-07T06:56:18.507Z,1001.28
2023-08-07T06:57:18.521Z,1001.32
2023-08-07T06:58:17.505Z,1001.35
2023-08-07T06:59:17.477Z,1001.35
2023-08-07T07:00:17.482Z,1001.29
2023-08-07T07:01:17.499Z,1001.31
2023-08-07T07:02:17.386Z,1001.37
2023-08-07T07:03:17.431Z,1001.34
2023-08-07T07:04:17.328Z,1001.30
2023-08-07T07:05:18.311Z,1001.36
2023-08-07T07:06:17.278Z,1001.36
2023-08-07T07:07:17.256Z,1001.33
2023-08-07T07:08:17.236Z,1001.36
2023-08-07T07:09:17.313Z,1001.31
2023-08-07T07:10:17.188Z,1001.32
2023-08-07T07:11:17.190Z,1001.34
2023-08-07T07:12:17.120Z,1001.40
2023-08-07T07:13:17.085Z,1001.42
2023-08-07T07:14:17.064Z,1001.44
2023-08-07T07:15:17.080Z,1001.43
2023-08-07T07:16:17.020Z,1001.50
2023-08-07T07:17:16.967Z,1001.46
2023-08-07T07:18:16.948Z,1001.41
2023-08-07T07:19:16.917Z,1001.44
2023-08-07T07:20:16.894Z,1001.48
2023-08-07T07:21:16.918Z,1001.50
2023-08-07T07:22:16.847Z,1001.52
2023-08-07T07:23:16.807Z,1001.45
2023-08-07T07:24:16.783Z,1001.46
2023-08-07T07:25:16.749Z,1001.53
2023-08-07T07:26:16.737Z,1001.56
2023-08-07T07:27:16.783Z,1001.57
2023-08-07T07:28:16.676Z,1001.57
2023-08-07T07:29:16.644Z,1001.57
2023-08-07T07:30:16.687Z,1001.58
2023-08-07T07:31:16.612Z,1001.51
2023-08-07T07:32:16.588Z,1001.56
2023-08-07T07:33:16.588Z,1001.57
2023-08-07T07:34:16.513Z,1001.51
2023-08-07T07:35:16.475Z,1001.54
2023-08-07T07:36:16.469Z,1001.61
2023-08-07T07:37:16.423Z,1001.54
2023-08-07T07:38:16.434Z,1001.54
2023-08-07T07:39:16.446Z,1001.51
2023-08-07T07:40:16.346Z,1001.59
2023-08-07T07:41:16.321Z,1001.59
2023-08-07T07:42:16.300Z,1001.48
2023-08-07T07:43:16.270Z,1001.56
2023-08-07T07:44:16.242Z,1001.52
2023-08-07T07:45:16.271Z,1001.54
2023-08-07T07:46:16.187Z,1001.61
2023-08-07T07:47:16.162Z,1001.56
2023-08-07T07:48:16.139Z,1001.59
2023-08-07T07:49:16.210Z,1001.54
2023-08-07T07:50:16.591Z,1001.59
2023-08-07T07:51:16.162Z,1001.60
2023-08-07T07:52:16.055Z,1001.64
2023-08-07T07:53:16.638Z,1001.63
2023-08-07T07:54:16.728Z,1001.64
2023-08-07T07:55:16.690Z,1001.58
2023-08-07T07:56:17.492Z,1001.55
2023-08-07T07:57:16.483Z,1001.59
2023-08-07T07:58:15.908Z,1001.64
2023-08-07T07:59:15.828Z,1001.64
2023-08-07T08:00:15.814Z,1001.61
2023-08-07T08:01:15.774Z,1001.68
2023-08-07T08:02:15.754Z,1001.66
2023-08-07T08:03:15.830Z,1001.68
2023-08-07T08:04:15.788Z,1001.65
2023-08-07T08:05:15.682Z,1001.65
2023-08-07T08:06:15.654Z,1001.75
2023-08-07T08:07:15.706Z,1001.77
2023-08-07T08:08:15.601Z,1001.67
2023-08-07T08:09:15.616Z,1001.68
2023-08-07T08:10:15.576Z,1001.77
2023-08-07T08:11:15.513Z,1001.77
2023-08-07T08:12:15.510Z,1001.76
2023-08-07T08:13:15.984Z,1001.74
2023-08-07T08:14:15.480Z,1001.72
2023-08-07T08:15:15.456Z,1001.78
2023-08-07T08:16:15.429Z,1001.75
2023-08-07T08:17:16.114Z,1001.76
2023-08-07T08:18:15.345Z,1001.68
2023-08-07T08:19:15.333Z,1001.73
2023-08-07T08:20:16.104Z,1001.72
2023-08-07T08:21:15.669Z,1001.68
2023-08-07T08:22:16.103Z,1001.71
2023-08-07T08:23:16.103Z,1001.65
2023-08-07T08:24:16.113Z,1001.73
2023-08-07T08:25:15.999Z,1001.70
2023-08-07T08:26:16.101Z,1001.71
2023-08-07T08:27:16.121Z,1001.71
2023-08-07T08:28:15.995Z,1001.74
2023-08-07T08:29:16.500Z,1001.76
2023-08-07T08:30:15.585Z,1001.79
2023-08-07T08:31:15.009Z,1001.73
2023-08-07T08:32:14.972Z,1001.77
2023-08-07T08:33:14.982Z,1001.81
2023-08-07T08:34:14.922Z,1001.79
2023-08-07T08:35:14.912Z,1001.78
2023-08-07T08:36:15.504Z,1001.75
2023-08-07T08:37:14.862Z,1001.76
2023-08-07T08:38:14.801Z,1001.73
2023-08-07T08:39:15.226Z,1001.79
2023-08-07T08:40:14.749Z,1001.83
2023-08-07T08:41:14.711Z,1001.87
2023-08-07T08:42:14.719Z,1001.89
2023-08-07T08:43:14.663Z,1001.86
2023-08-07T08:44:14.642Z,1001.85
2023-08-07T08:45:14.706Z,1001.84
2023-08-07T08:46:14.613Z,1001.84
2023-08-07T08:47:14.549Z,1001.86
2023-08-07T08:48:14.536Z,1001.85
2023-08-07T08:49:14.505Z,1001.88
2023-08-07T08:50:15.549Z,1001.88
2023-08-07T08:51:14.509Z,1001.83
2023-08-07T08:52:14.430Z,1001.84
2023-08-07T08:53:14.400Z,1001.94
2023-08-07T08:54:14.380Z,1002.00
2023-08-07T08:55:14.349Z,1002.00
2023-08-07T08:56:14.324Z,1001.99
2023-08-07T08:57:14.354Z,1002.02
2023-08-07T08:58:14.262Z,1002.15
2023-08-07T08:59:14.268Z,1002.20
2023-08-07T09:00:14.255Z,1002.14
2023-08-07T09:01:15.169Z,1002.15
2023-08-07T09:02:15.068Z,1002.15
2023-08-07T09:03:17.097Z,1002.12
2023-08-07T09:04:14.139Z,1001.96
2023-08-07T09:05:14.080Z,1002.07
2023-08-07T09:06:14.057Z,1002.09
2023-08-07T09:07:14.026Z,1002.16
2023-08-07T09:08:14.005Z,1002.10
2023-08-07T09:09:14.027Z,1002.06
2023-08-07T09:10:13.974Z,1002.09
2023-08-07T09:11:13.942Z,1002.07
2023-08-07T09:12:13.908Z,1002.04
2023-08-07T09:13:13.869Z,1002.05
2023-08-07T09:14:13.853Z,1002.07
2023-08-07T09:15:13.904Z,1002.17
2023-08-07T09:16:13.879Z,1002.13
2023-08-07T09:17:13.769Z,1002.14
2023-08-07T09:18:13.805Z,1002.11
2023-08-07T09:19:13.791Z,1002.14
2023-08-07T09:20:13.698Z,1002.09
2023-08-07T09:21:13.665Z,1002.10
2023-08-07T09:22:13.645Z,1002.12
2023-08-07T09:23:13.613Z,1002.12
2023-08-07T09:24:13.602Z,1002.14
2023-08-07T09:25:13.620Z,1002.20
2023-08-07T09:26:14.147Z,1002.10
2023-08-07T09:27:13.531Z,1002.16
2023-08-07T09:28:13.498Z,1002.21
2023-08-07T09:29:13.455Z,1002.14
2023-08-07T09:30:14.044Z,1002.14
2023-08-07T09:31:13.507Z,1002.16
2023-08-07T09:32:13.398Z,1002.21
2023-08-07T09:33:13.418Z,1002.22
2023-08-07T09:34:13.342Z,1002.25
2023-08-07T09:35:14.016Z,1002.20
2023-08-07T09:36:13.286Z,1002.23
2023-08-07T09:37:13.351Z,1002.22
2023-08-07T09:38:13.275Z,1002.23
2023-08-07T09:39:13.200Z,1002.19
2023-08-07T09:40:13.240Z,1002.29
2023-08-07T09:41:13.157Z,1002.19
2023-08-07T09:42:13.218Z,1002.30
2023-08-07T09:43:13.149Z,1002.17
2023-08-07T09:44:13.090Z,1002.22
2023-08-07T09:45:13.057Z,1002.24
2023-08-07T09:46:13.036Z,1002.32
2023-08-07T09:47:12.999Z,1002.25
2023-08-07T09:48:13.031Z,1002.36
2023-08-07T09:49:13.635Z,1002.30
2023-08-07T09:50:12.953Z,1002.25
2023-08-07T09:51:13.628Z,1002.43
2023-08-07T09:52:13.145Z,1002.24
2023-08-07T09:53:13.523Z,1002.29
2023-08-07T09:54:12.891Z,1002.21
2023-08-07T09:55:12.798Z,1002.31
2023-08-07T09:56:12.778Z,1002.22
2023-08-07T09:57:12.746Z,1002.25
2023-08-07T09:58:12.736Z,1002.30
2023-08-07T09:59:12.690Z,1002.23
2023-08-07T10:00:12.739Z,1002.28
2023-08-07T10:01:12.694Z,1002.27
2023-08-07T10:02:12.751Z,1002.28
2023-08-07T10:03:12.644Z,1002.25
2023-08-07T10:04:13.141Z,1002.21
2023-08-07T10:05:12.547Z,1002.26
2023-08-07T10:06:12.748Z,1002.22
2023-08-07T10:07:12.492Z,1002.21
2023-08-07T10:08:12.474Z,1002.24
2023-08-07T10:09:12.451Z,1002.21
2023-08-07T10:10:12.467Z,1002.18
2023-08-07T10:11:12.402Z,1002.26
2023-08-07T10:12:12.434Z,1002.25
2023-08-07T10:13:12.354Z,1002.21
2023-08-07T10:14:12.334Z,1002.18
2023-08-07T10:15:12.301Z,1002.23
2023-08-07T10:16:12.292Z,1002.19
2023-08-07T10:17:12.261Z,1002.23
2023-08-07T10:18:12.468Z,1002.34
2023-08-07T10:19:12.202Z,1002.30
2023-08-07T10:20:12.173Z,1002.31
2023-08-07T10:21:12.164Z,1002.28
2023-08-07T10:22:12.122Z,1002.34
2023-08-07T10:23:12.109Z,1002.28
2023-08-07T10:24:12.188Z,1002.30
2023-08-07T10:25:12.066Z,1002.32
2023-08-07T10:26:12.029Z,1002.37
2023-08-07T10:27:12.006Z,1002.34
2023-08-07T10:28:11.978Z,1002.32
2023-08-07T10:29:11.960Z,1002.34
2023-08-07T10:30:12.012Z,1002.27
2023-08-07T10:31:11.924Z,1002.31
2023-08-07T10:32:11.907Z,1002.36
2023-08-07T10:33:11.865Z,1002.48
2023-08-07T10:34:11.922Z,1002.37
2023-08-07T10:35:11.810Z,1002.42
2023-08-07T10:36:16.164Z,1002.37
2023-08-07T10:37:11.766Z,1002.38
2023-08-07T10:38:11.822Z,1002.39
2023-08-07T10:39:11.722Z,1002.41
2023-08-07T10:40:11.701Z,1002.48
2023-08-07T10:41:11.697Z,1002.44
2023-08-07T10:42:12.545Z,1002.44
2023-08-07T10:43:11.612Z,1002.43
2023-08-07T10:44:11.726Z,1002.34
2023-08-07T10:45:11.568Z,1002.43
2023-08-07T10:46:12.594Z,1002.30
2023-08-07T10:47:11.550Z,1002.39
2023-08-07T10:48:11.524Z,1002.30
2023-08-07T10:49:11.471Z,1002.30
2023-08-07T10:50:11.494Z,1002.32
2023-08-07T10:51:11.431Z,1002.30
2023-08-07T10:52:11.438Z,1002.28
2023-08-07T10:53:11.371Z,1002.28
2023-08-07T10:54:12.047Z,1002.35
2023-08-07T10:55:13.102Z,1002.30
2023-08-07T10:56:11.368Z,1002.32
2023-08-07T10:57:11.309Z,1002.26
2023-08-07T10:58:11.286Z,1002.27
2023-08-07T10:59:11.232Z,1002.31
2023-08-07T11:00:11.271Z,1002.21
2023-08-07T11:01:11.227Z,1002.17
2023-08-07T11:02:12.833Z,1002.25
2023-08-07T11:03:11.148Z,1002.18
2023-08-07T11:04:11.130Z,1002.24
2023-08-07T11:05:12.076Z,1002.19
2023-08-07T11:06:11.658Z,1002.21
2023-08-07T11:07:11.158Z,1002.23
2023-08-07T11:08:11.041Z,1002.21
2023-08-07T11:09:11.037Z,1002.23
2023-08-07T11:10:11.025Z,1002.20
2023-08-07T11:11:10.956Z,1002.21
2023-08-07T11:12:10.938Z,1002.39
2023-08-07T11:13:10.914Z,1002.33
2023-08-07T11:14:12.064Z,1002.39
2023-08-07T11:15:10.806Z,1002.39
2023-08-07T11:16:10.794Z,1002.41
2023-08-07T11:17:10.758Z,1002.45
2023-08-07T11:18:10.722Z,1002.38
2023-08-07T11:19:10.774Z,1002.39
2023-08-07T11:20:10.669Z,1002.43
2023-08-07T11:21:10.652Z,1002.44
2023-08-07T11:22:10.618Z,1002.43
2023-08-07T11:23:10.600Z,1002.39
2023-08-07T11:24:10.668Z,1002.41
2023-08-07T11:25:10.604Z,1002.40
2023-08-07T11:26:10.508Z,1002.40
2023-08-07T11:27:10.494Z,1002.37
2023-08-07T11:28:10.462Z,1002.35
2023-08-07T11:29:10.551Z,1002.37
2023-08-07T11:30:10.407Z,1002.26
2023-08-07T11:31:14.593Z,1002.20
2023-08-07T11:32:11.757Z,1002.28
2023-08-07T11:33:10.338Z,1002.27
2023-08-07T11:34:10.303Z,1002.30
2023-08-07T11:35:10.282Z,1002.23
2023-08-07T11:36:10.256Z,1002.23
2023-08-07T11:37:10.309Z,1002.23
2023-08-07T11:38:10.266Z,1002.23
2023-08-07T11:39:10.179Z,1002.26
2023-08-07T11:40:10.149Z,1002.18
2023-08-07T11:41:10.137Z,1002.10
2023-08-07T11:42:10.096Z,1002.17
2023-08-07T11:43:10.150Z,1002.19
2023-08-07T11:44:10.079Z,1002.16
2023-08-07T11:45:10.053Z,1002.13
2023-08-07T11:46:10.056Z,1002.24
2023-08-07T11:47:10.034Z,1002.18
2023-08-07T11:48:09.950Z,1002.23
2023-08-07T11:49:09.922Z,1002.19
2023-08-07T11:50:09.908Z,1002.24
2023-08-07T11:51:09.865Z,1002.25
2023-08-07T11:52:09.913Z,1002.13
2023-08-07T11:53:09.825Z,1002.20
2023-08-07T11:54:09.802Z,1002.26
2023-08-07T11:55:09.789Z,1002.27
2023-08-07T11:56:09.869Z,1002.11
2023-08-07T11:57:09.778Z,1002.10
2023-08-07T11:58:09.682Z,1002.11
2023-08-07T11:59:09.663Z,1002.05
2023-08-07T12:00:09.643Z,1002.04
2023-08-07T12:01:09.686Z,1002.04
2023-08-07T12:02:09.580Z,1001.95
2023-08-07T12:03:09.632Z,1002.03
2023-08-07T12:04:09.825Z,1001.90
2023-08-07T12:05:09.507Z,1001.98
2023-08-07T12:06:09.508Z,1002.06
2023-08-07T12:07:09.455Z,1001.97
2023-08-07T12:08:09.422Z,1002.02
2023-08-07T12:09:09.462Z,1002.08
2023-08-07T12:10:09.374Z,1002.21
2023-08-07T12:11:09.354Z,1002.24